Terminal Aerodrome Forecast
Issued by NWS Knoxville/Tri Cities, TN

Current Version | Previous Version | Text Only | Print | Product List | Glossary On
Versions: 1 2 3 4 5 6 7 8 9 10 11 12 13 14 15 16 17 18 19 20 21 22 23 24 25 26 27 28 29 30
795
FTUS44 KMRX 111120
TAFCHA
TAF
KCHA 111120Z 1112/1212 VRB03KT P6SM SKC
     FM111600 19007KT P6SM FEW250
     FM120100 22006KT P6SM BKN200
     FM121000 32009KT P6SM BKN035=

USA.gov is the U.S. government's official web portal to all federal, state and local government web resources and services.